Time;durP1;ratioP1;P1;durP2;ratioP2;P2;SDS_P1;SDS_P2;PMS_P1;PMS_P2;Temp;Humidity;BMP_temperature;BMP_pressure;BME280_temperature;BME280_humidity;BME280_pressure;Samples;Min_cycle;Max_cycle;Signal;HPM_P1;HPM_P2
2022/01/06 00:00:08;;;;;;;0.60;0.60;;;;;;;1.21;79.19;96617.47;29373;308;63009;-62
2022/01/06 00:00:39;;;;;;;0.60;0.60;;;;;;;1.19;79.40;96614.22;29373;196;63011;-62
2022/01/06 00:01:11;;;;;;;0.60;0.60;;;;;;;1.19;79.77;96608.87;29373;252;63008;-62
2022/01/06 00:01:43;;;;;;;0.70;0.70;;;;;;;1.18;79.41;96612.59;29373;365;63006;-64
2022/01/06 00:02:15;;;;;;;0.60;0.60;;;;;;;1.20;79.92;96609.69;29373;325;63008;-62
2022/01/06 00:02:46;;;;;;;0.60;0.60;;;;;;;1.21;79.89;96612.13;29373;282;63005;-62
2022/01/06 00:03:19;;;;;;;0.50;0.50;;;;;;;1.22;80.14;96611.06;29371;213;64009;-62
2022/01/06 00:03:52;;;;;;;0.60;0.60;;;;;;;1.21;80.03;96614.78;29373;202;63005;-64
2022/01/06 00:04:23;;;;;;;0.60;0.60;;;;;;;1.23;79.99;96610.03;29373;307;63009;-62
2022/01/06 00:04:55;;;;;;;0.60;0.60;;;;;;;1.24;79.64;96614.31;29373;332;63005;-63
2022/01/06 00:05:26;;;;;;;0.60;0.60;;;;;;;1.27;79.82;96610.34;29373;225;63024;-62
2022/01/06 00:06:03;;;;;;;0.60;0.60;;;;;;;1.24;79.55;96614.31;29395;381;63004;-64
2022/01/06 00:06:38;;;;;;;0.60;0.60;;;;;;;1.24;79.78;96614.31;29371;202;64009;-63
2022/01/06 00:07:10;;;;;;;0.60;0.60;;;;;;;1.23;79.54;96615.38;29373;196;63004;-63
2022/01/06 00:07:44;;;;;;;0.60;0.60;;;;;;;1.22;79.78;96611.06;29373;284;63009;-62
2022/01/06 00:08:15;;;;;;;0.60;0.60;;;;;;;1.21;80.59;96605.97;29373;241;63004;-63
2022/01/06 00:08:46;;;;;;;0.60;0.60;;;;;;;1.21;80.01;96609.44;29371;235;64008;-63
2022/01/06 00:09:19;;;;;;;0.60;0.60;;;;;;;1.24;79.92;96606.31;29371;283;64005;-62
2022/01/06 00:09:51;;;;;;;0.60;0.60;;;;;;;1.25;80.25;96607.13;29373;314;63009;-61
2022/01/06 00:10:26;;;;;;;0.60;0.60;;;;;;;1.24;80.49;96611.66;29373;223;63005;-63
2022/01/06 00:10:57;;;;;;;0.60;0.60;;;;;;;1.24;80.25;96610.84;29373;199;63009;-64
2022/01/06 00:11:29;;;;;;;0.60;0.60;;;;;;;1.24;80.49;96613.50;29373;199;63005;-63
2022/01/06 00:12:00;;;;;;;0.60;0.60;;;;;;;1.26;80.15;96604.19;29373;316;63009;-61
2022/01/06 00:12:40;;;;;;;0.60;0.60;;;;;;;1.26;79.72;96614.91;29371;199;64005;-63
2022/01/06 00:13:15;;;;;;;0.60;0.60;;;;;;;1.26;80.01;96614.09;29373;377;63009;-64
2022/01/06 00:14:12;;;;;;;0.60;0.60;;;;;;;1.26;80.00;96609.53;29373;352;63004;-63
2022/01/06 00:15:03;;;;;;;0.60;0.60;;;;;;;1.25;80.32;96613.28;29373;303;63009;-63
2022/01/06 00:15:45;;;;;;;0.60;0.60;;;;;;;1.25;80.54;96613.28;29417;265;63004;-71
2022/01/06 00:16:43;;;;;;;0.60;0.60;;;;;;;1.28;80.13;96602.09;29395;202;63008;-68
2022/01/06 00:17:36;;;;;;;0.60;0.60;;;;;;;1.38;79.47;96614.84;29373;203;63005;-63
2022/01/06 00:18:19;;;;;;;0.60;0.60;;;;;;;1.34;79.57;96617.19;29371;237;64009;-71
2022/01/06 00:23:31;;;;;;;0.60;0.60;;;;;;;1.42;79.71;96607.94;29373;298;63008;-65
2022/01/06 00:24:04;;;;;;;0.60;0.60;;;;;;;1.41;79.02;96613.50;29373;198;63004;-63
2022/01/06 00:24:35;;;;;;;0.60;0.60;;;;;;;1.38;79.36;96616.69;29373;203;63009;-55
2022/01/06 00:25:08;;;;;;;0.60;0.60;;;;;;;1.37;79.64;96620.44;29373;206;63005;-62
2022/01/06 00:25:39;;;;;;;0.60;0.60;;;;;;;1.33;79.96;96620.91;29373;222;63009;-63
2022/01/06 00:26:14;;;;;;;0.60;0.60;;;;;;;1.29;79.88;96622.44;29373;216;63010;-63
2022/01/06 00:26:48;;;;;;;1.45;1.35;;;;;;;1.25;80.20;96618.63;29371;282;64009;-62
2022/01/06 00:27:20;;;;;;;0.60;0.60;;;;;;;1.20;80.85;96615.84;29373;298;63005;-62
2022/01/06 00:27:51;;;;;;;0.60;0.60;;;;;;;1.16;81.44;96621.91;29373;281;63009;-62
2022/01/06 00:28:22;;;;;;;0.60;0.60;;;;;;;1.15;81.32;96618.44;29373;296;63004;-63
2022/01/06 00:28:54;;;;;;;0.60;0.60;;;;;;;1.16;81.21;96617.37;29373;289;63009;-63
2022/01/06 00:29:26;;;;;;;5.43;5.22;;;;;;;1.17;81.10;96618.19;29373;356;63004;-62
2022/01/06 00:29:57;;;;;;;0.70;0.70;;;;;;;1.13;82.37;96620.53;29373;289;63009;-63
2022/01/06 00:30:31;;;;;;;0.60;0.60;;;;;;;1.12;81.85;96624.25;29371;297;64004;-60
2022/01/06 00:31:03;;;;;;;0.60;0.60;;;;;;;1.13;82.05;96625.88;29373;275;63008;-62
2022/01/06 00:31:35;;;;;;;0.60;0.60;;;;;;;1.13;81.63;96625.88;29373;196;63004;-62
2022/01/06 00:32:07;;;;;;;0.60;0.60;;;;;;;1.13;81.44;96620.53;29373;320;63009;-62
2022/01/06 00:32:41;;;;;;;0.60;0.60;;;;;;;1.13;81.35;96625.06;29371;306;64005;-62
2022/01/06 00:33:13;;;;;;;0.60;0.60;;;;;;;1.15;81.58;96629.12;29373;204;63009;-56
2022/01/06 00:33:45;;;;;;;0.60;0.60;;;;;;;1.27;81.09;96621.84;29373;285;63005;-64
2022/01/06 00:34:17;;;;;;;0.60;0.60;;;;;;;1.38;80.44;96617.50;29373;197;63009;-64
2022/01/06 00:34:48;;;;;;;0.60;0.60;;;;;;;1.40;79.97;96625.25;29373;352;63005;-64
2022/01/06 00:35:20;;;;;;;0.60;0.60;;;;;;;1.45;79.55;96623.50;29371;270;64009;-62
2022/01/06 00:35:51;;;;;;;0.60;0.60;;;;;;;1.43;79.72;96628.25;29373;210;63004;-63
2022/01/06 00:36:22;;;;;;;0.60;0.60;;;;;;;1.41;79.92;96624.22;29373;197;63009;-62
2022/01/06 00:36:54;;;;;;;0.60;0.60;;;;;;;1.39;79.95;96629.00;29373;202;63004;-62
2022/01/06 00:37:25;;;;;;;0.60;0.60;;;;;;;1.34;80.81;96627.88;29373;228;63009;-63
2022/01/06 00:37:57;;;;;;;0.60;0.60;;;;;;;1.36;80.20;96624.97;29373;214;63004;-63
2022/01/06 00:38:28;;;;;;;0.60;0.60;;;;;;;1.34;80.32;96635.06;29373;238;63008;-68
2022/01/06 00:39:00;;;;;;;0.60;0.60;;;;;;;1.39;79.68;96629.00;29373;334;63004;-65
2022/01/06 00:39:32;;;;;;;0.60;0.60;;;;;;;1.39;79.94;96626.34;29373;212;63009;-63
2022/01/06 00:40:04;;;;;;;0.60;0.60;;;;;;;1.36;79.78;96624.16;29373;286;63005;-62
2022/01/06 00:40:37;;;;;;;0.60;0.60;;;;;;;1.31;80.40;96630.22;29371;208;64009;-63
2022/01/06 00:41:08;;;;;;;0.60;0.60;;;;;;;1.29;80.33;96625.09;29373;241;63005;-63
2022/01/06 00:41:40;;;;;;;0.60;0.60;;;;;;;1.27;80.32;96627.22;29373;202;63009;-61
2022/01/06 00:42:13;;;;;;;0.60;0.60;;;;;;;1.27;80.39;96619.19;29373;243;63005;-62
2022/01/06 00:42:44;;;;;;;0.60;0.60;;;;;;;1.27;80.68;96627.22;29373;342;63009;-63
2022/01/06 00:43:16;;;;;;;0.60;0.60;;;;;;;1.30;80.64;96631.25;29373;202;63005;-62
2022/01/06 00:43:47;;;;;;;0.85;0.85;;;;;;;1.32;80.79;96624.63;29373;268;63009;-66
2022/01/06 00:44:18;;;;;;;0.60;0.60;;;;;;;1.33;80.54;96620.91;29372;278;63004;-62
2022/01/06 00:44:50;;;;;;;0.60;0.60;;;;;;;1.33;80.61;96626.25;29373;290;63009;-62
2022/01/06 00:45:23;;;;;;;0.60;0.60;;;;;;;1.29;80.20;96630.44;29373;273;63004;-56
2022/01/06 00:45:54;;;;;;;0.60;0.60;;;;;;;1.28;80.23;96633.38;29371;199;64008;-58
2022/01/06 00:46:26;;;;;;;0.60;0.60;;;;;;;1.37;80.10;96625.78;29373;203;63004;-56
2022/01/06 00:46:57;;;;;;;0.60;0.60;;;;;;;1.41;80.13;96632.22;29373;265;63009;-55
2022/01/06 00:47:29;;;;;;;0.60;0.60;;;;;;;1.42;80.07;96625.84;29371;198;64005;-55
2022/01/06 00:48:01;;;;;;;0.60;0.60;;;;;;;1.40;80.88;96627.94;29373;203;63009;-57
2022/01/06 00:48:37;;;;;;;0.60;0.60;;;;;;;1.37;80.46;96633.78;29373;352;63005;-57
2022/01/06 00:49:10;;;;;;;0.60;0.60;;;;;;;1.38;80.71;96630.88;29371;271;64009;-55
2022/01/06 00:49:45;;;;;;;0.60;0.60;;;;;;;1.38;80.32;96636.22;29373;274;63005;-62
2022/01/06 00:50:16;;;;;;;0.60;0.60;;;;;;;1.40;80.02;96625.25;29373;208;63009;-63
2022/01/06 00:50:47;;;;;;;0.60;0.60;;;;;;;1.41;79.89;96632.22;29373;215;63004;-61
2022/01/06 00:51:18;;;;;;;0.60;0.60;;;;;;;1.39;79.99;96629.00;29371;257;64009;-62
2022/01/06 00:51:50;;;;;;;0.60;0.60;;;;;;;1.38;80.00;96624.72;29373;278;63004;-63
2022/01/06 00:52:22;;;;;;;0.60;0.60;;;;;;;1.37;80.26;96631.94;29371;295;64009;-62
2022/01/06 00:52:53;;;;;;;0.60;0.60;;;;;;;1.36;80.17;96629.50;29373;307;63004;-62
2022/01/06 00:53:26;;;;;;;0.60;0.60;;;;;;;1.36;80.72;96629.50;29373;232;63008;-62
2022/01/06 00:53:57;;;;;;;0.60;0.60;;;;;;;1.33;80.74;96631.59;29373;357;63004;-63
2022/01/06 00:54:32;;;;;;;0.60;0.60;;;;;;;1.30;80.72;96631.25;29373;264;63009;-64
2022/01/06 00:55:04;;;;;;;0.60;0.60;;;;;;;1.42;80.67;96628.50;29373;197;63005;-64
2022/01/06 00:55:37;;;;;;;0.60;0.60;;;;;;;1.43;80.28;96632.81;29373;255;63009;-63
2022/01/06 00:56:08;;;;;;;0.60;0.60;;;;;;;1.42;80.02;96629.31;29373;328;63005;-67
2022/01/06 00:56:39;;;;;;;0.60;0.60;;;;;;;1.48;80.26;96627.53;29371;343;64009;-62
2022/01/06 00:57:12;;;;;;;0.60;0.60;;;;;;;1.54;80.15;96631.94;29373;202;63005;-65
2022/01/06 00:57:43;;;;;;;0.60;0.60;;;;;;;1.51;79.78;96627.06;29373;224;63009;-62
2022/01/06 00:58:15;;;;;;;0.60;0.60;;;;;;;1.48;79.92;96624.87;29373;312;63004;-62
2022/01/06 00:58:48;;;;;;;0.60;0.60;;;;;;;1.44;80.12;96623.72;29373;355;63009;-62
2022/01/06 00:59:19;;;;;;;0.60;0.60;;;;;;;1.40;80.13;96627.94;29373;299;63004;-62
2022/01/06 00:59:50;;;;;;;0.60;0.60;;;;;;;1.34;80.86;96622.53;29373;346;63009;-64
2022/01/06 01:00:23;;;;;;;0.60;0.60;;;;;;;1.32;80.90;96623.81;29371;250;64004;-63
2022/01/06 01:00:54;;;;;;;0.60;0.60;;;;;;;1.28;81.26;96623.47;29373;244;63008;-64
2022/01/06 01:01:25;;;;;;;0.60;0.60;;;;;;;1.27;81.55;96626.41;29373;354;63005;-55
2022/01/06 01:01:57;;;;;;;0.70;0.70;;;;;;;1.24;82.34;96626.88;29373;315;63009;-64
2022/01/06 01:02:28;;;;;;;0.60;0.60;;;;;;;1.27;82.22;96624.53;29373;322;63005;-63
2022/01/06 01:02:59;;;;;;;0.60;0.60;;;;;;;1.27;82.13;96621.84;29373;323;63009;-62
2022/01/06 01:03:30;;;;;;;0.60;0.60;;;;;;;1.27;81.90;96627.22;29373;334;63005;-63
2022/01/06 01:04:01;;;;;;;0.60;0.60;;;;;;;1.27;81.61;96632.56;29373;196;63009;-66
2022/01/06 01:04:32;;;;;;;0.60;0.60;;;;;;;1.39;81.02;96626.34;29373;340;63005;-56
2022/01/06 01:05:04;;;;;;;0.60;0.60;;;;;;;1.42;80.69;96623.97;29373;199;63009;-62
2022/01/06 01:05:36;;;;;;;0.60;0.60;;;;;;;1.41;81.45;96626.88;29371;286;64004;-65
2022/01/06 01:06:07;;;;;;;0.60;0.60;;;;;;;1.38;81.14;96622.03;29373;210;63009;-64
2022/01/06 01:06:38;;;;;;;0.60;0.60;;;;;;;1.33;81.06;96625.44;29373;314;63004;-62
2022/01/06 01:07:11;;;;;;;0.60;0.60;;;;;;;1.29;81.45;96622.44;29373;255;63024;-56
2022/01/06 01:07:42;;;;;;;0.60;0.60;;;;;;;1.32;81.16;96629.97;29373;354;63004;-62
2022/01/06 01:08:17;;;;;;;0.60;0.60;;;;;;;1.31;81.24;96627.53;29373;242;63008;-63
2022/01/06 01:08:48;;;;;;;0.60;0.60;;;;;;;1.29;81.09;96625.09;29373;222;63005;-65
2022/01/06 01:09:19;;;;;;;0.60;0.60;;;;;;;1.28;81.44;96634.16;29373;311;63026;-62
2022/01/06 01:09:50;;;;;;;0.60;0.60;;;;;;;1.31;81.37;96628.34;29373;265;63005;-68
2022/01/06 01:10:22;;;;;;;0.60;0.60;;;;;;;1.32;81.41;96629.97;29373;315;63009;-63
2022/01/06 01:10:56;;;;;;;0.60;0.60;;;;;;;1.33;81.10;96634.28;29371;221;64005;-65
2022/01/06 01:11:27;;;;;;;0.60;0.60;;;;;;;1.36;81.03;96632.16;29373;212;63009;-63
2022/01/06 01:12:03;;;;;;;0.60;0.60;;;;;;;1.32;81.04;96624.63;29373;218;63005;-62
2022/01/06 01:12:34;;;;;;;0.60;0.60;;;;;;;1.31;81.11;96631.03;29373;203;63009;-63
2022/01/06 01:13:11;;;;;;;0.60;0.60;;;;;;;1.30;81.24;96632.06;29373;283;63004;-62
2022/01/06 01:14:45;;;;;;;0.60;0.60;;;;;;;1.34;80.92;96638.56;29395;275;63004;-61
2022/01/06 01:15:20;;;;;;;0.60;0.60;;;;;;;1.31;81.40;96633.69;29395;202;63008;-63
2022/01/06 01:15:54;;;;;;;0.60;0.60;;;;;;;1.30;80.94;96640.09;29373;270;63004;-67
2022/01/06 01:16:31;;;;;;;0.60;0.60;;;;;;;1.32;81.21;96640.66;29371;283;64009;-62
2022/01/06 01:17:03;;;;;;;0.60;0.60;;;;;;;1.34;81.27;96648.44;29373;326;63005;-56
2022/01/06 01:17:35;;;;;;;0.60;0.60;;;;;;;1.32;81.21;96640.66;29373;342;63009;-57
2022/01/06 01:18:10;;;;;;;0.60;0.60;;;;;;;1.32;81.26;96642.53;29373;276;63009;-56
2022/01/06 01:18:45;;;;;;;0.60;0.60;;;;;;;1.40;80.82;96649.31;29371;356;64009;-66
2022/01/06 01:19:16;;;;;;;0.60;0.60;;;;;;;1.44;79.97;96642.44;29373;363;63005;-62
2022/01/06 01:19:47;;;;;;;0.60;0.60;;;;;;;1.44;79.86;96642.44;29373;279;63017;-57
2022/01/06 01:20:20;;;;;;;0.62;0.62;;;;;;;1.61;79.66;96656.66;29373;218;63004;-60
2022/01/06 01:20:54;;;;;;;0.60;0.60;;;;;;;1.64;79.07;96648.16;29373;197;63009;-63
2022/01/06 01:21:27;;;;;;;0.60;0.60;;;;;;;1.59;79.03;96650.75;29373;261;63004;-64
2022/01/06 01:21:59;;;;;;;0.77;0.77;;;;;;;1.54;79.46;96648.78;29373;197;63009;-57
2022/01/06 01:22:31;;;;;;;0.60;0.60;;;;;;;1.50;79.55;96646.84;29373;206;63004;-62
2022/01/06 01:23:05;;;;;;;0.60;0.60;;;;;;;1.46;79.96;96649.19;29373;219;63004;-56
2022/01/06 01:23:37;;;;;;;0.60;0.60;;;;;;;1.43;80.38;96648.84;29371;287;64005;-63
2022/01/06 01:24:08;;;;;;;0.60;0.60;;;;;;;1.48;80.46;96648.94;29373;330;63009;-63
2022/01/06 01:24:39;;;;;;;0.60;0.60;;;;;;;1.47;79.98;96648.13;29373;251;63005;-56
2022/01/06 01:25:10;;;;;;;0.60;0.60;;;;;;;1.46;80.21;96649.19;29373;294;63005;-57
2022/01/06 01:25:42;;;;;;;0.60;0.60;;;;;;;1.45;80.04;96649.41;29372;196;64005;-56
2022/01/06 01:26:14;;;;;;;0.57;0.57;;;;;;;1.44;80.23;96647.78;29373;294;63009;-57
2022/01/06 01:26:46;;;;;;;0.60;0.60;;;;;;;1.42;80.82;96641.88;29371;203;64005;-57
2022/01/06 01:27:21;;;;;;;0.60;0.60;;;;;;;1.37;81.03;96642.63;29373;251;63009;-62
2022/01/06 01:27:55;;;;;;;0.60;0.60;;;;;;;1.34;81.51;96649.25;29373;208;63004;-73
2022/01/06 01:28:33;;;;;;;0.60;0.60;;;;;;;1.41;80.54;96653.63;29371;197;64009;-62
2022/01/06 01:29:09;;;;;;;0.60;0.60;;;;;;;1.46;80.23;96645.69;29372;196;64004;-57
2022/01/06 01:29:51;;;;;;;0.60;0.60;;;;;;;1.45;80.26;96649.41;29374;320;63009;-64
2022/01/06 01:30:31;;;;;;;0.60;0.60;;;;;;;1.42;79.96;96649.88;29374;267;63004;-61
2022/01/06 01:32:04;;;;;;;0.60;0.60;;;;;;;1.40;80.51;96646.66;29372;203;64005;-63
2022/01/06 01:32:37;;;;;;;0.60;0.60;;;;;;;1.43;80.66;96648.84;29372;369;64009;-67
2022/01/06 01:33:15;;;;;;;0.60;0.60;;;;;;;1.45;80.25;96646.75;29374;366;63005;-65
2022/01/06 01:33:47;;;;;;;0.60;0.60;;;;;;;1.52;80.09;96650.06;29374;210;63009;-61
2022/01/06 01:34:26;;;;;;;0.60;0.60;;;;;;;1.58;79.80;96654.47;29374;292;63005;-63
2022/01/06 01:35:00;;;;;;;0.60;0.60;;;;;;;1.64;79.28;96654.31;29374;212;63009;-63
2022/01/06 01:35:32;;;;;;;0.60;0.60;;;;;;;1.68;78.86;96649.31;29374;347;63004;-57
2022/01/06 01:36:04;;;;;;;0.77;0.77;;;;;;;1.67;79.28;96653.03;29374;206;63009;-56
2022/01/06 01:36:36;;;;;;;0.60;0.60;;;;;;;1.64;79.17;96653.50;29374;198;63004;-58
2022/01/06 01:37:07;;;;;;;0.60;0.60;;;;;;;1.67;78.98;96655.69;29372;300;64009;-56
2022/01/06 01:37:39;;;;;;;0.70;0.70;;;;;;;1.62;79.25;96656.41;29374;211;63004;-56
2022/01/06 01:38:10;;;;;;;0.68;0.68;;;;;;;1.59;79.44;96656.09;29374;234;63008;-57
2022/01/06 01:38:45;;;;;;;0.60;0.60;;;;;;;1.58;79.50;96659.81;29374;313;63004;-70
2022/01/06 01:39:17;;;;;;;0.60;0.60;;;;;;;1.60;79.41;96658.53;29372;290;64009;-66
2022/01/06 01:39:48;;;;;;;0.60;0.60;;;;;;;1.63;79.02;96658.03;29374;225;63005;-56
2022/01/06 01:40:19;;;;;;;0.60;0.60;;;;;;;1.60;79.27;96657.72;29374;226;63009;-64
2022/01/06 01:40:54;;;;;;;0.60;0.60;;;;;;;1.57;79.09;96663.53;29374;221;63005;-57
2022/01/06 01:41:25;;;;;;;0.60;0.60;;;;;;;1.62;79.56;96660.97;29374;342;63009;-60
2022/01/06 01:41:57;;;;;;;0.60;0.60;;;;;;;1.61;79.08;96660.16;29374;211;63010;-57
2022/01/06 01:42:28;;;;;;;0.60;0.60;;;;;;;1.57;79.54;96658.19;29374;237;63009;-63
2022/01/06 01:43:00;;;;;;;1.45;1.45;;;;;;;1.55;79.45;96660.28;29374;197;63004;-56
2022/01/06 01:43:31;;;;;;;0.60;0.60;;;;;;;1.53;79.63;96668.56;29372;197;64009;-66
2022/01/06 01:44:05;;;;;;;0.60;0.60;;;;;;;1.54;79.71;96664.84;29372;371;64004;-56
2022/01/06 01:44:36;;;;;;;0.60;0.60;;;;;;;1.51;80.37;96659.16;29372;353;64008;-56
2022/01/06 01:45:09;;;;;;;0.60;0.60;;;;;;;1.46;80.24;96651.84;29374;337;63004;-62
2022/01/06 01:45:46;;;;;;;0.60;0.60;;;;;;;1.43;80.23;96662.22;29374;257;63009;-67
2022/01/06 01:46:20;;;;;;;0.60;0.60;;;;;;;1.44;80.39;96661.16;29374;200;63005;-63
2022/01/06 01:47:03;;;;;;;0.60;0.60;;;;;;;1.42;80.68;96665.94;29374;275;63024;-61
2022/01/06 01:47:44;;;;;;;0.60;0.60;;;;;;;1.41;80.69;96666.97;29374;318;63005;-57
2022/01/06 01:48:24;;;;;;;0.60;0.60;;;;;;;1.40;80.93;96658.16;29401;248;63009;-63
2022/01/06 01:49:59;;;;;;;0.60;0.60;;;;;;;1.52;80.66;96660.78;29372;234;64009;-56
2022/01/06 01:50:31;;;;;;;0.60;0.60;;;;;;;1.57;80.67;96669.69;29374;197;63004;-58
2022/01/06 01:51:03;;;;;;;0.60;0.60;;;;;;;1.56;80.35;96659.25;29374;253;63009;-64
2022/01/06 01:51:34;;;;;;;0.60;0.60;;;;;;;1.51;80.47;96664.50;29374;363;63004;-56
2022/01/06 01:52:06;;;;;;;0.60;0.60;;;;;;;1.47;80.34;96661.50;29372;196;63995;-57
2022/01/06 01:52:39;;;;;;;0.60;0.60;;;;;;;1.47;80.64;96663.34;29374;337;63004;-64
2022/01/06 01:53:10;;;;;;;0.60;0.60;;;;;;;1.52;81.03;96671.47;29374;295;63009;-57
2022/01/06 01:53:41;;;;;;;0.60;0.60;;;;;;;1.55;81.03;96671.00;29374;342;63005;-56
2022/01/06 01:54:13;;;;;;;0.60;0.60;;;;;;;1.53;80.87;96663.22;29374;320;63009;-62
2022/01/06 01:54:44;;;;;;;0.60;0.60;;;;;;;1.52;80.64;96666.12;29374;290;63005;-56
2022/01/06 01:55:28;;;;;;;0.60;0.60;;;;;;;1.47;81.16;96669.50;29374;288;63009;-62
2022/01/06 01:55:59;;;;;;;0.60;0.60;;;;;;;1.38;82.21;96662.16;29372;332;64005;-64
2022/01/06 01:56:30;;;;;;;0.60;0.60;;;;;;;1.36;82.17;96664.25;29374;255;63009;-57
2022/01/06 01:57:03;;;;;;;0.60;0.60;;;;;;;1.41;81.61;96670.47;29373;291;63005;-67
2022/01/06 01:57:35;;;;;;;0.60;0.60;;;;;;;1.44;81.43;96675.34;29374;266;63009;-62
2022/01/06 01:58:08;;;;;;;0.60;0.60;;;;;;;1.42;81.50;96671.28;29374;249;63010;-63
2022/01/06 01:58:40;;;;;;;0.60;0.60;;;;;;;1.42;81.82;96671.28;29374;197;63009;-75
2022/01/06 01:59:13;;;;;;;0.60;0.60;;;;;;;1.47;81.12;96669.50;29372;197;64004;-61
2022/01/06 01:59:45;;;;;;;0.60;0.60;;;;;;;1.49;81.46;96677.28;29374;251;63008;-56
2022/01/06 02:00:18;;;;;;;0.60;0.60;;;;;;;1.43;81.90;96672.91;29374;215;63004;-57
2022/01/06 02:00:49;;;;;;;0.60;0.60;;;;;;;1.38;82.27;96672.84;29372;336;64009;-63
2022/01/06 02:01:22;;;;;;;0.70;0.70;;;;;;;1.37;82.33;96676.56;29375;342;63005;-65
2022/01/06 02:01:56;;;;;;;0.60;0.60;;;;;;;1.35;82.52;96671.44;29374;202;63009;-56
2022/01/06 02:02:28;;;;;;;2.87;2.67;;;;;;;1.39;82.23;96677.13;29374;223;63005;-59
2022/01/06 02:02:59;;;;;;;0.60;0.60;;;;;;;1.34;82.70;96676.00;29372;222;64009;-63
2022/01/06 02:03:31;;;;;;;0.60;0.60;;;;;;;1.31;82.37;96679.13;29375;234;63005;-62
2022/01/06 02:04:04;;;;;;;0.60;0.60;;;;;;;1.28;83.07;96676.94;29375;303;63009;-65
2022/01/06 02:04:35;;;;;;;0.60;0.60;;;;;;;1.26;82.82;96673.69;29375;299;63005;-57
2022/01/06 02:05:07;;;;;;;0.60;0.60;;;;;;;1.29;83.09;96681.25;29375;337;63009;-62
2022/01/06 02:05:39;;;;;;;0.60;0.60;;;;;;;1.27;82.68;96675.31;29375;206;63004;-63
2022/01/06 02:06:10;;;;;;;0.60;0.60;;;;;;;1.26;82.73;96681.72;29373;221;64009;-62
2022/01/06 02:06:41;;;;;;;0.60;0.60;;;;;;;1.24;82.99;96680.31;29374;324;63004;-64
2022/01/06 02:07:13;;;;;;;0.60;0.60;;;;;;;1.23;83.32;96679.50;29375;226;63009;-62
2022/01/06 02:07:44;;;;;;;0.60;0.60;;;;;;;1.23;83.35;96673.34;29375;232;63004;-63
2022/01/06 02:08:15;;;;;;;0.60;0.60;;;;;;;1.22;83.24;96683.22;29375;289;63009;-57
2022/01/06 02:08:47;;;;;;;0.60;0.60;;;;;;;1.23;83.38;96676.84;29373;199;64005;-59
2022/01/06 02:09:18;;;;;;;0.60;0.60;;;;;;;1.26;83.62;96679.03;29375;210;63009;-57
2022/01/06 02:09:49;;;;;;;0.60;0.60;;;;;;;1.25;83.76;96684.63;29375;325;63008;-56
2022/01/06 02:10:21;;;;;;;0.60;0.60;;;;;;;1.22;83.80;96685.91;29375;203;63009;-57
2022/01/06 02:10:52;;;;;;;0.60;0.60;;;;;;;1.24;83.77;96686.47;29375;209;63005;-58
2022/01/06 02:11:23;;;;;;;0.60;0.60;;;;;;;1.24;83.96;96681.12;29375;226;63009;-63
2022/01/06 02:11:54;;;;;;;0.60;0.60;;;;;;;1.23;84.13;96686.72;29376;289;63004;-63
2022/01/06 02:12:29;;;;;;;0.60;0.60;;;;;;;1.19;84.28;96678.37;29376;221;63014;-63
2022/01/06 02:13:01;;;;;;;0.60;0.60;;;;;;;1.17;83.84;96685.81;29376;211;63004;-56
2022/01/06 02:13:32;;;;;;;0.60;0.60;;;;;;;1.21;84.35;96680.78;29376;213;63009;-57
2022/01/06 02:14:06;;;;;;;0.60;0.60;;;;;;;1.28;83.85;96687.63;29374;242;64004;-57
2022/01/06 02:14:38;;;;;;;0.60;0.60;;;;;;;1.33;83.78;96684.25;29376;362;63009;-57
2022/01/06 02:15:11;;;;;;;0.60;0.60;;;;;;;1.30;83.33;96684.72;29376;273;63004;-59
2022/01/06 02:15:43;;;;;;;0.60;0.60;;;;;;;1.30;83.47;96688.22;29376;210;63009;-67
2022/01/06 02:16:22;;;;;;;0.60;0.60;;;;;;;1.34;83.23;96676.00;29376;238;63016;-62
2022/01/06 02:16:56;;;;;;;0.60;0.60;;;;;;;1.32;83.25;96678.09;29376;200;63019;-62
2022/01/06 02:17:29;;;;;;;0.60;0.60;;;;;;;1.29;83.10;96677.75;29376;305;63005;-61
2022/01/06 02:18:01;;;;;;;0.60;0.60;;;;;;;1.25;83.68;96680.09;29376;275;63009;-63
2022/01/06 02:18:32;;;;;;;0.60;0.60;;;;;;;1.25;83.73;96687.28;29374;341;64005;-63
2022/01/06 02:19:05;;;;;;;0.60;0.60;;;;;;;1.22;84.06;96677.87;29376;305;63009;-57
2022/01/06 02:19:39;;;;;;;0.60;0.60;;;;;;;1.22;83.85;96688.56;29376;288;63004;-64
2022/01/06 02:20:14;;;;;;;0.60;0.60;;;;;;;1.20;84.24;96679.19;29376;250;63009;-56
2022/01/06 02:20:45;;;;;;;0.60;0.60;;;;;;;1.23;84.08;96682.19;29376;334;63004;-57
2022/01/06 02:21:16;;;;;;;0.60;0.60;;;;;;;1.24;84.19;96680.31;29376;331;63009;-65
2022/01/06 02:21:51;;;;;;;0.60;0.60;;;;;;;1.26;83.87;96683.56;29376;236;63004;-62
2022/01/06 02:22:22;;;;;;;0.60;0.60;;;;;;;1.31;83.98;96686.34;29376;200;63019;-57
2022/01/06 02:22:53;;;;;;;0.60;0.60;;;;;;;1.33;83.68;96684.25;29376;227;63005;-63
2022/01/06 02:23:25;;;;;;;0.60;0.60;;;;;;;1.31;83.54;96686.34;29374;352;64009;-63
2022/01/06 02:23:56;;;;;;;0.60;0.60;;;;;;;1.32;83.50;96682.62;29376;235;63005;-64
2022/01/06 02:24:27;;;;;;;0.60;0.60;;;;;;;1.28;83.77;96682.28;29376;353;63009;-61
2022/01/06 02:25:13;;;;;;;0.60;0.60;;;;;;;1.32;83.61;96686.09;29376;262;63005;-76
2022/01/06 02:25:44;;;;;;;0.60;0.60;;;;;;;1.37;83.29;96684.59;29375;196;63009;-66
2022/01/06 02:26:17;;;;;;;0.60;0.60;;;;;;;1.38;82.95;96683.53;29374;328;64005;-62
2022/01/06 02:26:49;;;;;;;0.60;0.60;;;;;;;1.35;83.01;96682.16;29376;283;63009;-62
2022/01/06 02:27:21;;;;;;;0.60;0.60;;;;;;;1.33;83.25;96677.03;29375;317;63004;-63
2022/01/06 02:27:54;;;;;;;0.60;0.60;;;;;;;1.32;83.59;96685.28;29375;213;63009;-56
2022/01/06 02:28:25;;;;;;;0.60;0.60;;;;;;;1.30;83.40;96682.03;29375;295;63004;-56
2022/01/06 02:28:57;;;;;;;0.50;0.50;;;;;;;1.30;83.51;96679.38;29375;260;63009;-62
2022/01/06 02:29:28;;;;;;;0.60;0.60;;;;;;;1.26;83.60;96679.03;29396;247;63004;-63
2022/01/06 02:30:00;;;;;;;0.60;0.60;;;;;;;1.24;83.79;96686.47;29396;201;63009;-62
2022/01/06 02:30:34;;;;;;;0.60;0.60;;;;;;;1.26;83.75;96683.56;29375;350;63005;-61
2022/01/06 02:31:06;;;;;;;0.60;0.60;;;;;;;1.25;84.10;96685.44;29396;197;63009;-57
2022/01/06 02:31:46;;;;;;;0.60;0.60;;;;;;;1.27;83.71;96682.53;29395;223;64005;-56
2022/01/06 02:32:21;;;;;;;0.60;0.60;;;;;;;1.36;83.67;96682.97;29375;311;63009;-58
2022/01/06 02:32:54;;;;;;;0.60;0.60;;;;;;;1.40;82.96;96689.41;29375;287;63012;-57
2022/01/06 02:33:29;;;;;;;0.60;0.60;;;;;;;1.43;83.08;96688.94;29375;240;63009;-58
2022/01/06 02:34:02;;;;;;;0.60;0.60;;;;;;;1.42;82.77;96687.31;29375;288;63005;-56
2022/01/06 02:34:33;;;;;;;0.60;0.60;;;;;;;1.39;82.85;96687.81;29375;309;63009;-56
2022/01/06 02:35:13;;;;;;;0.60;0.60;;;;;;;1.34;82.94;96697.38;29375;295;63004;-63
2022/01/06 02:35:47;;;;;;;0.60;0.60;;;;;;;1.38;83.25;96696.91;29375;290;63009;-58
2022/01/06 02:36:20;;;;;;;0.60;0.60;;;;;;;1.39;82.96;96693.19;29375;361;63004;-55
2022/01/06 02:36:51;;;;;;;0.60;0.60;;;;;;;1.38;83.16;96691.56;29373;300;64008;-62
2022/01/06 02:37:22;;;;;;;0.60;0.60;;;;;;;1.38;82.97;96691.56;29373;212;64004;-65
2022/01/06 02:37:57;;;;;;;0.60;0.60;;;;;;;1.38;83.00;96687.03;29375;306;63009;-61
2022/01/06 02:38:29;;;;;;;0.65;0.65;;;;;;;1.36;82.94;96696.31;29375;230;63005;-57
2022/01/06 02:39:01;;;;;;;0.60;0.60;;;;;;;1.32;82.82;96688.78;29373;314;64009;-57
2022/01/06 02:39:32;;;;;;;0.60;0.60;;;;;;;1.30;82.95;96693.56;29375;278;63005;-57
2022/01/06 02:40:16;;;;;;;0.60;0.60;;;;;;;1.29;83.50;96697.28;29375;212;63009;-56
2022/01/06 02:40:48;;;;;;;0.60;0.60;;;;;;;1.26;83.31;96692.41;29375;299;63009;-56
2022/01/06 02:41:19;;;;;;;0.60;0.60;;;;;;;1.26;83.78;96695.06;29375;218;63009;-57
2022/01/06 02:41:50;;;;;;;0.60;0.60;;;;;;;1.25;83.71;96695.31;29375;306;63004;-63
2022/01/06 02:42:24;;;;;;;0.60;0.60;;;;;;;1.23;84.48;96700.09;29374;233;63009;-58
2022/01/06 02:43:01;;;;;;;0.60;0.60;;;;;;;1.26;83.83;96695.06;29375;278;63004;-57
2022/01/06 02:43:35;;;;;;;0.60;0.60;;;;;;;1.29;83.64;96691.94;29373;291;64009;-57
2022/01/06 02:44:06;;;;;;;0.60;0.60;;;;;;;1.27;83.96;96691.34;29375;234;63004;-57
2022/01/06 02:44:39;;;;;;;0.60;0.60;;;;;;;1.25;84.28;96693.44;29375;225;63008;-56
2022/01/06 02:45:12;;;;;;;0.60;0.60;;;;;;;1.23;84.28;96690.19;29375;332;63005;-57
2022/01/06 02:45:45;;;;;;;2.30;2.25;;;;;;;1.22;84.49;96688.56;29375;267;63009;-62
2022/01/06 02:46:17;;;;;;;0.60;0.60;;;;;;;1.28;84.25;96687.63;29375;206;63005;-58
2022/01/06 02:46:49;;;;;;;0.60;0.60;;;;;;;1.31;83.75;96689.03;29373;233;64009;-61
2022/01/06 02:47:20;;;;;;;0.60;0.60;;;;;;;1.30;83.75;96692.75;29373;314;64005;-56